Time;durP1;ratioP1;P1;durP2;ratioP2;P2;SDS_P1;SDS_P2;PMS_P1;PMS_P2;Temp;Humidity;BMP_temperature;BMP_pressure;BME280_temperature;BME280_humidity;BME280_pressure;Samples;Min_cycle;Max_cycle;Signal;HPM_P1;HPM_P2
2022/03/20 00:00:13;;;;;;;10.65;5.13;;;;;;;3.67;63.95;103422.16;4970857;28;20046;-71
2022/03/20 00:02:39;;;;;;;9.63;5.13;;;;;;;3.65;64.16;103424.75;4963829;28;20066;-71
2022/03/20 00:05:05;;;;;;;14.77;6.15;;;;;;;3.73;64.15;103419.53;4963560;28;20093;-71
2022/03/20 00:07:34;;;;;;;16.85;6.22;;;;;;;3.74;64.16;103413.38;4963734;28;20066;-71
2022/03/20 00:10:05;;;;;;;12.33;6.77;;;;;;;3.90;62.93;103412.59;4929197;28;1007878;-70
2022/03/20 00:12:32;;;;;;;12.93;6.38;;;;;;;3.72;63.69;103413.38;4963819;28;21066;-70
2022/03/20 00:14:58;;;;;;;10.48;5.93;;;;;;;3.68;63.64;103408.94;4983185;28;20034;-71
2022/03/20 00:17:23;;;;;;;16.42;6.90;;;;;;;3.59;64.24;103404.50;4969197;28;20053;-71
2022/03/20 00:19:49;;;;;;;14.43;7.75;;;;;;;3.55;64.83;103402.69;4984391;28;20048;-72
2022/03/20 00:22:15;;;;;;;13.13;6.88;;;;;;;3.47;64.94;103393.88;4983404;28;20349;-71
2022/03/20 00:24:42;;;;;;;15.82;6.75;;;;;;;3.51;64.57;103392.97;4981788;28;20403;-71
2022/03/20 00:27:12;;;;;;;13.63;7.63;;;;;;;3.45;64.35;103387.69;4981826;28;20108;-71
2022/03/20 00:29:39;;;;;;;20.33;8.65;;;;;;;3.49;64.47;103385.94;4965125;28;20042;-71
2022/03/20 00:32:06;;;;;;;20.52;8.75;;;;;;;3.44;64.86;103379.75;4982855;28;20046;-71
2022/03/20 00:34:31;;;;;;;14.95;8.80;;;;;;;3.23;65.67;103375.22;4982955;28;20825;-71
2022/03/20 00:36:57;;;;;;;18.90;9.25;;;;;;;3.28;64.51;103382.28;4982782;28;20073;-71
2022/03/20 00:39:22;;;;;;;19.20;9.40;;;;;;;3.10;65.34;103375.09;4964683;28;20141;-71
2022/03/20 00:41:48;;;;;;;17.58;9.20;;;;;;;3.09;65.54;103356.63;4982296;28;20034;-71
2022/03/20 00:44:13;;;;;;;18.40;9.57;;;;;;;3.17;65.38;103359.34;4982032;28;20451;-71
2022/03/20 00:46:39;;;;;;;18.40;10.15;;;;;;;3.10;64.82;103356.63;4981700;28;20072;-71
2022/03/20 00:49:05;;;;;;;20.50;10.55;;;;;;;2.98;65.70;103350.41;4981232;28;20042;-71
2022/03/20 00:51:31;;;;;;;24.10;10.95;;;;;;;3.10;65.76;103346.09;4981877;28;20046;-71
2022/03/20 00:53:57;;;;;;;27.40;11.23;;;;;;;3.14;65.65;103339.09;4964841;28;20058;-71
2022/03/20 00:56:22;;;;;;;22.73;10.65;;;;;;;3.20;65.50;103338.25;4982870;28;20318;-71
2022/03/20 00:58:48;;;;;;;20.15;10.80;;;;;;;3.20;65.53;103339.16;4983317;28;20046;-71
2022/03/20 01:01:14;;;;;;;24.25;10.48;;;;;;;3.15;65.59;103338.22;4983514;28;20407;-71
2022/03/20 01:03:41;;;;;;;26.90;11.02;;;;;;;3.08;65.33;103325.88;4964167;28;20408;-70
2022/03/20 01:06:07;;;;;;;28.33;12.20;;;;;;;2.92;66.32;103326.63;4981475;28;20034;-71
2022/03/20 01:08:36;;;;;;;23.58;12.57;;;;;;;2.90;66.09;103323.09;4981621;28;20038;-71
2022/03/20 01:11:07;;;;;;;31.63;14.25;;;;;;;2.97;66.08;103325.81;4982508;28;20710;-70
2022/03/20 01:13:33;;;;;;;30.63;13.20;;;;;;;2.93;65.59;103316.09;4982169;28;20034;-71
2022/03/20 01:15:59;;;;;;;28.83;14.25;;;;;;;2.87;66.33;103307.28;4981358;28;20100;-71
2022/03/20 01:18:25;;;;;;;23.65;12.90;;;;;;;2.91;65.21;103306.41;4982091;28;20069;-71
2022/03/20 01:20:51;;;;;;;31.85;14.80;;;;;;;2.95;65.44;103302.94;4981984;28;20459;-71
2022/03/20 01:23:17;;;;;;;28.67;16.13;;;;;;;3.02;65.46;103307.41;4982566;28;20062;-71
2022/03/20 01:25:42;;;;;;;28.80;15.27;;;;;;;3.03;65.18;103309.16;4981814;28;20679;-71
2022/03/20 01:28:08;;;;;;;33.60;15.65;;;;;;;3.03;64.78;103298.59;4982139;28;20546;-71
2022/03/20 01:30:33;;;;;;;29.48;15.32;;;;;;;2.94;65.49;103293.25;4981599;28;20050;-71
2022/03/20 01:32:59;;;;;;;35.50;16.92;;;;;;;3.01;64.69;103284.53;4981220;28;20407;-71
2022/03/20 01:35:25;;;;;;;32.95;17.17;;;;;;;2.88;65.58;103282.69;4980679;28;20778;-71
2022/03/20 01:37:50;;;;;;;36.30;16.90;;;;;;;2.97;65.77;103280.13;4963987;28;20113;-70
2022/03/20 01:40:16;;;;;;;42.55;16.77;;;;;;;2.99;65.07;103275.72;4982332;28;20060;-71
2022/03/20 01:42:43;;;;;;;32.28;16.05;;;;;;;3.16;64.54;103271.44;4979707;28;20038;-71
2022/03/20 01:45:22;;;;;;;27.52;15.38;;;;;;;2.96;65.59;103258.16;4980747;28;20034;-71
2022/03/20 01:47:49;;;;;;;34.85;16.08;;;;;;;3.01;65.40;103255.53;4981991;28;20050;-71
2022/03/20 01:50:20;;;;;;;27.92;15.57;;;;;;;3.01;65.42;103253.81;4981977;28;20104;-70
2022/03/20 01:52:46;;;;;;;29.52;14.85;;;;;;;3.07;66.32;103255.59;4982424;28;20053;-71
2022/03/20 01:55:13;;;;;;;30.85;15.10;;;;;;;2.93;66.46;103246.72;4982642;28;20034;-71
2022/03/20 01:57:39;;;;;;;29.60;15.13;;;;;;;3.04;66.69;103242.38;4982809;28;20041;-71
2022/03/20 02:00:06;;;;;;;29.85;14.38;;;;;;;2.87;67.06;103237.00;4982615;28;20038;-71
2022/03/20 02:02:37;;;;;;;33.92;14.52;;;;;;;2.79;67.38;103241.31;4981926;28;20152;-71
2022/03/20 02:05:05;;;;;;;30.90;14.27;;;;;;;2.84;67.99;103240.50;4982277;28;20092;-71
2022/03/20 02:07:34;;;;;;;28.75;13.18;;;;;;;2.72;68.73;103235.13;4964638;28;20046;-71
2022/03/20 02:10:01;;;;;;;27.55;12.88;;;;;;;2.76;69.13;103233.38;4982371;28;20570;-71
2022/03/20 02:12:26;;;;;;;26.40;13.77;;;;;;;2.71;69.17;103227.19;4964684;28;20054;-70
2022/03/20 02:14:53;;;;;;;23.48;12.77;;;;;;;2.70;69.91;103226.31;4964438;28;20050;-70
2022/03/20 02:17:19;;;;;;;30.73;13.05;;;;;;;2.69;69.83;103221.94;4964723;28;20053;-71
2022/03/20 02:19:46;;;;;;;24.50;11.93;;;;;;;2.65;69.86;103217.50;4982230;28;20073;-71
2022/03/20 02:22:11;;;;;;;25.50;11.95;;;;;;;2.70;70.90;103218.41;4982090;28;20056;-72
2022/03/20 02:24:44;;;;;;;24.45;11.93;;;;;;;2.79;70.28;103210.59;4981780;28;20038;-71
2022/03/20 02:27:23;;;;;;;29.52;11.13;;;;;;;2.93;70.02;103207.19;4981212;28;20046;-71
2022/03/20 02:29:59;;;;;;;20.08;9.93;;;;;;;2.88;70.62;103198.38;4979885;28;20484;-70
2022/03/20 02:32:30;;;;;;;19.08;9.93;;;;;;;2.94;70.72;103190.50;4980432;28;20042;-70
2022/03/20 02:35:04;;;;;;;22.83;10.18;;;;;;;2.93;70.81;103183.47;4963527;28;20045;-71
2022/03/20 02:37:31;;;;;;;24.95;10.30;;;;;;;2.92;71.16;103177.31;4981571;28;20046;-71
2022/03/20 02:40:00;;;;;;;23.73;10.85;;;;;;;2.97;70.87;103178.22;4981642;28;20043;-71
2022/03/20 02:42:27;;;;;;;23.85;10.73;;;;;;;2.89;71.17;103173.78;4981136;28;20034;-71
2022/03/20 02:44:57;;;;;;;23.48;10.07;;;;;;;2.91;71.32;103170.25;4981217;28;20044;-71
2022/03/20 02:47:25;;;;;;;26.65;11.43;;;;;;;2.83;71.33;103171.97;4979760;28;20112;-70
2022/03/20 02:50:06;;;;;;;21.27;10.95;;;;;;;2.75;71.69;103158.75;4981546;28;20034;-71
2022/03/20 02:52:51;;;;;;;23.25;10.52;;;;;;;2.70;72.16;103157.84;4963843;28;20455;-71
2022/03/20 02:55:38;;;;;;;20.42;10.98;;;;;;;2.76;71.78;103159.63;4981074;28;20038;-71
2022/03/20 02:58:07;;;;;;;20.15;11.32;;;;;;;2.78;71.54;103152.63;4963037;28;20046;-71
2022/03/20 03:00:34;;;;;;;25.77;11.43;;;;;;;2.66;71.42;103148.19;4981175;28;20046;-71
2022/03/20 03:03:02;;;;;;;22.10;11.25;;;;;;;2.70;71.35;103155.19;4983713;28;20074;-71
2022/03/20 03:05:30;;;;;;;27.58;12.52;;;;;;;2.72;71.36;103140.31;4982543;28;20069;-71
2022/03/20 03:11:01;;;;;;;24.67;12.68;;;;;;;2.57;71.48;103143.72;4981125;28;20591;-71
2022/03/20 03:13:39;;;;;;;23.00;12.13;;;;;;;2.55;72.04;103136.66;4979411;28;20128;-70
2022/03/20 03:16:06;;;;;;;23.83;12.38;;;;;;;2.49;71.25;103128.72;4963837;28;20530;-72
2022/03/20 03:18:31;;;;;;;26.75;13.13;;;;;;;2.58;70.95;103119.13;4980863;28;20128;-70
2022/03/20 03:20:57;;;;;;;28.08;12.85;;;;;;;2.44;71.35;103115.53;4980237;28;20145;-71
2022/03/20 03:23:26;;;;;;;37.17;14.27;;;;;;;2.50;70.81;103118.19;4980729;28;20042;-71
2022/03/20 03:25:53;;;;;;;25.35;12.20;;;;;;;2.42;71.16;103119.91;4982294;28;20038;-71
2022/03/20 03:28:18;;;;;;;31.00;12.65;;;;;;;2.50;71.10;103110.28;4984744;28;20042;-71
2022/03/20 03:30:46;;;;;;;29.77;13.93;;;;;;;2.56;70.92;103107.72;4984864;28;20092;-71
2022/03/20 03:33:12;;;;;;;29.30;14.38;;;;;;;2.55;70.77;103121.75;4984990;28;20061;-70
2022/03/20 03:35:46;;;;;;;27.15;13.52;;;;;;;2.52;70.67;103119.09;4985016;28;20065;-71
2022/03/20 03:38:19;;;;;;;32.97;14.27;;;;;;;2.64;69.65;103104.25;4967518;28;20057;-71
2022/03/20 03:40:46;;;;;;;28.35;13.50;;;;;;;2.66;70.23;103099.84;4985608;28;20049;-71
2022/03/20 03:43:15;;;;;;;29.13;14.50;;;;;;;2.66;70.23;103102.50;4985398;28;20055;-71
2022/03/20 03:45:42;;;;;;;27.08;14.48;;;;;;;2.64;69.88;103097.22;4984954;28;20042;-71
2022/03/20 03:48:09;;;;;;;35.38;15.63;;;;;;;2.70;69.61;103106.91;4985311;28;20700;-71
2022/03/20 03:50:36;;;;;;;31.20;15.23;;;;;;;2.70;69.44;103101.63;4983548;28;20046;-71
2022/03/20 03:53:03;;;;;;;28.85;13.98;;;;;;;2.62;69.94;103100.72;4984737;28;20045;-71
2022/03/20 03:55:29;;;;;;;27.58;14.23;;;;;;;2.75;69.35;103098.16;4984720;28;20053;-71
2022/03/20 03:57:55;;;;;;;30.23;13.50;;;;;;;2.85;68.24;103097.34;4984720;28;20093;-71
2022/03/20 04:00:21;;;;;;;29.27;14.63;;;;;;;2.73;68.81;103094.66;4985213;28;20046;-71
2022/03/20 04:02:48;;;;;;;27.75;14.40;;;;;;;2.84;68.36;103094.69;4984863;28;20046;-71
2022/03/20 04:05:22;;;;;;;29.00;14.88;;;;;;;2.90;68.51;103081.53;4984628;28;20042;-71
2022/03/20 04:07:48;;;;;;;29.42;14.10;;;;;;;2.93;68.33;103084.22;4984495;28;20084;-71
2022/03/20 04:10:15;;;;;;;26.73;14.63;;;;;;;3.02;68.06;103072.84;4984520;28;20062;-71
2022/03/20 04:12:41;;;;;;;32.08;15.75;;;;;;;3.02;68.47;103076.34;4984276;28;20046;-71
2022/03/20 04:15:11;;;;;;;34.60;16.15;;;;;;;3.09;67.08;103066.69;4984069;28;20068;-71
2022/03/20 04:17:37;;;;;;;32.33;15.43;;;;;;;3.06;67.10;103062.31;4983662;28;20498;-71
2022/03/20 04:20:04;;;;;;;33.75;16.25;;;;;;;3.11;67.55;103062.28;4984097;28;20050;-71
2022/03/20 04:22:30;;;;;;;28.67;15.82;;;;;;;3.18;66.34;103053.56;4983733;28;20502;-71
2022/03/20 04:24:56;;;;;;;35.78;14.48;;;;;;;3.15;66.39;103050.91;4984454;28;20118;-70
2022/03/20 04:27:22;;;;;;;26.90;14.25;;;;;;;3.13;66.08;103042.13;4985896;28;20046;-71
2022/03/20 04:29:48;;;;;;;34.90;15.98;;;;;;;3.14;66.28;103035.97;4983713;28;20046;-71
2022/03/20 04:32:14;;;;;;;35.33;15.48;;;;;;;3.20;65.90;103033.34;4983741;28;20049;-71
2022/03/20 04:34:41;;;;;;;26.25;14.55;;;;;;;3.22;65.53;103033.34;4983258;28;20180;-71
2022/03/20 04:37:08;;;;;;;33.22;16.33;;;;;;;3.23;65.65;103027.22;4982081;28;20039;-71
2022/03/20 04:39:34;;;;;;;33.80;15.80;;;;;;;3.20;66.06;103028.06;4983260;28;20046;-71
2022/03/20 04:42:00;;;;;;;29.30;15.48;;;;;;;3.21;65.46;103023.66;4983421;28;20034;-71
2022/03/20 04:44:26;;;;;;;34.30;15.18;;;;;;;3.20;64.88;103029.81;4983218;28;20038;-71
2022/03/20 04:46:55;;;;;;;32.63;16.70;;;;;;;3.21;65.19;103015.75;4982487;28;20062;-73
2022/03/20 05:00:20;;;;;;;32.75;16.80;;;;;;;3.23;64.61;103019.28;4981457;28;20566;-71
2022/03/20 05:02:46;;;;;;;38.05;15.70;;;;;;;3.24;63.65;103016.66;4982363;28;20038;-71
2022/03/20 05:05:12;;;;;;;30.48;16.60;;;;;;;3.26;63.17;103014.00;4983006;28;20077;-71
2022/03/20 05:07:37;;;;;;;31.55;15.98;;;;;;;3.19;64.43;103002.59;4982499;28;20053;-71
2022/03/20 05:15:33;;;;;;;30.30;16.67;;;;;;;3.17;63.36;103006.97;4966052;28;20042;-70
2022/03/20 05:17:58;;;;;;;31.98;16.00;;;;;;;3.15;63.71;102998.19;4965608;28;20038;-70
2022/03/20 05:20:26;;;;;;;38.13;16.17;;;;;;;3.18;62.86;103000.84;4983218;28;20506;-71
2022/03/20 05:22:52;;;;;;;31.52;15.98;;;;;;;3.19;62.58;103004.34;4982608;28;20046;-70
2022/03/20 05:25:18;;;;;;;32.00;16.15;;;;;;;3.18;63.77;102999.97;4948289;28;20045;-71
2022/03/20 05:27:44;;;;;;;31.42;14.95;;;;;;;3.15;63.02;102995.53;4982740;28;20046;-71
2022/03/20 05:30:10;;;;;;;33.55;16.42;;;;;;;3.22;62.30;102999.09;4964301;28;20829;-71
2022/03/20 05:32:36;;;;;;;33.95;17.88;;;;;;;3.11;63.03;102997.31;4964004;28;20038;-70
2022/03/20 05:35:06;;;;;;;33.40;16.30;;;;;;;3.16;62.11;102985.88;4982618;28;20053;-71
2022/03/20 05:37:32;;;;;;;33.13;16.80;;;;;;;3.17;61.43;102992.94;4965022;28;20065;-71
2022/03/20 05:39:58;;;;;;;29.85;15.88;;;;;;;3.19;60.97;102986.78;4981358;28;20821;-70
2022/03/20 05:42:23;;;;;;;35.20;16.85;;;;;;;3.17;61.68;102985.03;4981257;28;20043;-70
2022/03/20 05:44:50;;;;;;;35.83;16.13;;;;;;;3.13;62.95;102988.53;4981684;28;20122;-71
2022/03/20 05:47:15;;;;;;;32.53;16.58;;;;;;;3.19;61.51;102985.88;4982422;28;20068;-70
2022/03/20 05:49:41;;;;;;;29.65;16.58;;;;;;;3.21;60.20;102986.75;4983846;28;20049;-71
2022/03/20 05:52:07;;;;;;;32.83;17.27;;;;;;;3.28;61.60;102991.19;4964133;28;20057;-71
2022/03/20 05:54:33;;;;;;;31.15;16.85;;;;;;;3.21;61.37;102984.13;4964438;28;20450;-71
2022/03/20 05:59:42;;;;;;;39.55;17.20;;;;;;;3.31;59.37;102986.81;4982342;28;20057;-71
2022/03/20 06:02:10;;;;;;;33.17;15.95;;;;;;;3.34;60.08;102983.28;4981912;28;20038;-71
2022/03/20 06:04:37;;;;;;;31.63;16.25;;;;;;;3.37;59.47;102973.63;4981815;28;20101;-71
2022/03/20 06:07:03;;;;;;;36.45;17.65;;;;;;;3.46;58.43;102977.13;4981651;28;20120;-71
2022/03/20 06:09:28;;;;;;;34.03;16.88;;;;;;;3.51;59.25;102978.00;4980795;28;20082;-71
2022/03/20 06:11:54;;;;;;;36.28;18.42;;;;;;;3.53;58.72;102984.19;4980560;28;20042;-70
2022/03/20 06:14:20;;;;;;;35.58;17.90;;;;;;;3.55;58.72;102991.19;4980508;28;20053;-70
2022/03/20 06:16:48;;;;;;;37.97;18.00;;;;;;;3.56;58.11;102971.84;4980657;28;20042;-71
2022/03/20 06:19:15;;;;;;;32.80;16.80;;;;;;;3.55;57.46;102974.50;4980749;28;20497;-71
2022/03/20 06:21:44;;;;;;;35.92;16.63;;;;;;;3.47;58.36;102971.88;4981323;28;20038;-71
2022/03/20 06:24:10;;;;;;;35.25;17.65;;;;;;;3.52;57.82;102974.50;4981546;28;20042;-71
2022/03/20 06:26:36;;;;;;;34.95;17.48;;;;;;;3.46;58.96;102967.44;4981686;28;20385;-71
2022/03/20 06:29:05;;;;;;;33.10;16.10;;;;;;;3.49;58.64;102962.19;4981653;28;20045;-71
2022/03/20 06:31:31;;;;;;;40.17;18.70;;;;;;;3.62;58.18;102968.34;4981173;28;20058;-71
2022/03/20 06:33:57;;;;;;;35.65;18.20;;;;;;;3.53;58.01;102956.03;4981481;28;20484;-71
2022/03/20 06:36:22;;;;;;;42.80;18.55;;;;;;;3.55;57.68;102956.03;4981426;28;20030;-70
2022/03/20 06:38:48;;;;;;;33.88;17.08;;;;;;;3.63;57.08;102952.53;4982242;28;20058;-70
2022/03/20 06:41:13;;;;;;;33.20;18.35;;;;;;;3.77;56.27;102941.09;4983196;28;20034;-70
2022/03/20 06:43:39;;;;;;;31.95;17.42;;;;;;;3.82;56.81;102944.59;4983075;28;20518;-70
2022/03/20 06:46:06;;;;;;;35.30;16.85;;;;;;;3.82;57.62;102934.91;4982867;28;20485;-70
2022/03/20 06:48:32;;;;;;;40.53;18.20;;;;;;;4.03;56.33;102941.91;4982477;28;20070;-70
2022/03/20 06:50:57;;;;;;;31.58;17.10;;;;;;;3.80;56.72;102931.38;4982528;28;20961;-71
2022/03/20 06:53:23;;;;;;;31.60;17.85;;;;;;;3.75;55.89;102916.44;4982395;28;20034;-70
2022/03/20 06:55:49;;;;;;;32.78;17.45;;;;;;;3.69;57.61;102906.78;4983102;28;20523;-70
2022/03/20 06:58:14;;;;;;;34.80;17.30;;;;;;;3.68;57.20;102898.88;4982991;28;20046;-71
2022/03/20 07:00:40;;;;;;;35.33;16.83;;;;;;;3.67;57.05;102887.44;4983721;28;20074;-71
2022/03/20 07:03:07;;;;;;;34.40;17.38;;;;;;;3.71;56.39;102912.91;4984835;28;20049;-70
2022/03/20 07:05:33;;;;;;;33.85;18.17;;;;;;;3.72;56.75;102914.72;4983940;28;20065;-71
2022/03/20 07:08:00;;;;;;;35.35;17.98;;;;;;;3.56;57.22;102923.50;4965463;28;20052;-71
2022/03/20 07:10:25;;;;;;;39.55;18.88;;;;;;;3.70;57.35;102936.69;4986117;28;20062;-71
2022/03/20 07:13:48;;;;;;;35.80;18.50;;;;;;;3.94;56.59;102941.03;4967344;28;20045;-70
2022/03/20 07:15:37;;;;;;;36.13;18.67;;;;;;;4.49;55.66;102944.41;4982782;28;20050;-71
2022/03/20 07:18:03;;;;;;;36.33;18.85;;;;;;;4.64;54.85;102946.09;4966655;28;20038;-73
2022/03/20 07:20:28;;;;;;;37.53;17.92;;;;;;;5.02;53.48;102932.66;4984514;28;20526;-70
2022/03/20 07:22:54;;;;;;;36.45;18.88;;;;;;;5.21;51.89;102917.53;4983597;28;20065;-70
2022/03/20 07:30:48;;;;;;;35.25;17.38;;;;;;;5.76;49.10;102887.94;4983711;28;20122;-70
2022/03/20 07:33:14;;;;;;;35.22;18.45;;;;;;;5.62;48.51;102896.03;4984534;28;20046;-70
2022/03/20 07:35:42;;;;;;;39.35;17.15;;;;;;;5.70;46.16;102890.63;4984029;28;20046;-70
2022/03/20 07:38:08;;;;;;;37.17;18.65;;;;;;;5.84;45.59;102894.03;4983589;28;20125;-70
2022/03/20 07:40:33;;;;;;;37.47;18.15;;;;;;;6.01;45.27;102872.69;4982984;28;20541;-70
2022/03/20 07:42:59;;;;;;;31.02;17.58;;;;;;;6.12;44.96;102875.19;4983367;28;20049;-70
2022/03/20 07:45:24;;;;;;;30.88;16.75;;;;;;;5.96;43.86;102866.56;4965670;28;20050;-70
2022/03/20 07:47:50;;;;;;;30.55;17.05;;;;;;;6.42;44.26;102868.63;4984061;28;20487;-70
2022/03/20 07:50:15;;;;;;;39.03;18.83;;;;;;;6.17;43.48;102876.03;4966431;28;20041;-70
2022/03/20 07:52:40;;;;;;;36.28;18.30;;;;;;;6.54;42.64;102879.09;4984850;28;20050;-70
2022/03/20 07:55:06;;;;;;;33.30;17.67;;;;;;;6.40;42.54;102881.03;4984841;28;20049;-71
2022/03/20 07:57:32;;;;;;;38.75;18.55;;;;;;;6.48;42.00;102879.19;4966806;28;20132;-70
2022/03/20 07:59:58;;;;;;;33.20;16.95;;;;;;;6.36;42.02;102871.38;4984752;28;20566;-70
2022/03/20 08:02:24;;;;;;;38.15;20.00;;;;;;;6.20;42.92;102868.91;4967332;28;20050;-70
2022/03/20 08:04:51;;;;;;;37.20;19.27;;;;;;;6.26;44.17;102859.13;4984334;28;20042;-70
2022/03/20 08:07:19;;;;;;;36.08;18.30;;;;;;;6.41;44.61;102845.69;4966759;28;20050;-70
2022/03/20 08:09:45;;;;;;;34.10;17.42;;;;;;;6.33;42.52;102840.50;4984019;28;20127;-70
2022/03/20 08:12:11;;;;;;;33.67;18.38;;;;;;;6.11;42.98;102825.78;4984040;28;20038;-70
2022/03/20 08:14:36;;;;;;;39.67;18.05;;;;;;;5.83;43.30;102814.63;4984247;28;20570;-70
2022/03/20 08:17:06;;;;;;;35.92;19.02;;;;;;;5.84;43.33;102816.38;4984551;28;20048;-75
2022/03/20 08:19:32;;;;;;;36.22;17.88;;;;;;;6.17;44.04;102825.69;4988827;28;20045;-73
2022/03/20 08:21:59;;;;;;;34.38;18.42;;;;;;;6.37;41.99;102828.94;4984454;28;20455;-73
2022/03/20 08:24:24;;;;;;;33.90;19.33;;;;;;;6.94;41.38;102810.44;4984089;28;20042;-73
2022/03/20 08:26:50;;;;;;;30.88;17.00;;;;;;;6.72;41.41;102799.28;4984106;28;20048;-73
2022/03/20 08:29:16;;;;;;;34.67;17.83;;;;;;;7.57;44.13;102795.13;4986223;28;20038;-73
2022/03/20 08:31:47;;;;;;;32.60;18.83;;;;;;;7.61;40.64;102778.25;4985490;28;20484;-73
2022/03/20 08:34:15;;;;;;;33.47;18.85;;;;;;;7.38;40.85;102778.69;4984776;28;20077;-73
2022/03/20 08:36:41;;;;;;;37.03;19.35;;;;;;;7.16;42.18;102781.75;4984616;28;20050;-73
2022/03/20 08:39:07;;;;;;;36.95;20.45;;;;;;;6.89;41.63;102772.50;4984558;28;20125;-73
2022/03/20 08:41:33;;;;;;;42.97;20.65;;;;;;;6.78;41.64;102766.50;4984643;28;20141;-73
2022/03/20 08:43:58;;;;;;;34.83;18.92;;;;;;;6.64;41.30;102765.84;4983475;28;20045;-72
2022/03/20 08:46:24;;;;;;;38.13;21.27;;;;;;;6.69;42.00;102753.41;4982993;28;20039;-73
2022/03/20 08:48:49;;;;;;;40.58;20.35;;;;;;;6.61;42.78;102761.47;4983195;28;20077;-72
2022/03/20 08:51:15;;;;;;;37.47;20.42;;;;;;;6.75;42.89;102745.34;4987160;28;20061;-74
2022/03/20 08:53:40;;;;;;;44.03;20.73;;;;;;;6.74;42.21;102748.91;4984583;28;20069;-75
2022/03/20 08:56:06;;;;;;;41.65;22.25;;;;;;;6.87;42.02;102741.59;4982159;28;20046;-75
2022/03/20 08:58:32;;;;;;;37.33;20.67;;;;;;;6.64;43.40;102731.38;4982829;28;20041;-75
2022/03/20 09:00:58;;;;;;;43.97;20.67;;;;;;;6.87;42.12;102737.16;4981952;28;20495;-74
2022/03/20 09:03:24;;;;;;;40.30;20.65;;;;;;;6.78;41.69;102737.34;4982384;28;20042;-73
2022/03/20 09:05:49;;;;;;;45.33;20.83;;;;;;;6.94;42.67;102728.22;4979123;28;20040;-74
2022/03/20 09:08:15;;;;;;;42.45;21.92;;;;;;;6.92;42.68;102735.28;4979093;28;20042;-73
2022/03/20 09:10:41;;;;;;;38.05;20.70;;;;;;;7.16;41.92;102731.34;4979315;28;20507;-74
2022/03/20 09:13:06;;;;;;;36.22;19.95;;;;;;;7.17;41.62;102725.13;4981342;28;20066;-73
2022/03/20 09:15:32;;;;;;;41.80;21.30;;;;;;;7.40;41.94;102731.78;4981226;28;20463;-73
2022/03/20 09:20:43;;;;;;;38.08;20.10;;;;;;;7.25;41.88;102735.59;4975366;28;20117;-73
2022/03/20 09:23:11;;;;;;;43.05;20.63;;;;;;;7.33;41.84;102725.72;4973320;28;20038;-73
2022/03/20 09:25:37;;;;;;;43.05;21.75;;;;;;;7.30;41.14;102722.25;4982493;28;20038;-73
2022/03/20 09:28:07;;;;;;;46.08;22.05;;;;;;;7.36;41.39;102727.44;4964793;28;20116;-73
2022/03/20 09:30:33;;;;;;;45.58;20.75;;;;;;;7.42;41.56;102717.56;4982926;28;20045;-74
2022/03/20 09:33:02;;;;;;;39.50;20.75;;;;;;;7.87;41.44;102725.47;4982739;28;20057;-73
2022/03/20 09:35:28;;;;;;;36.35;20.17;;;;;;;8.33;39.50;102721.75;4983351;28;20050;-73
2022/03/20 09:37:53;;;;;;;43.03;20.35;;;;;;;8.68;38.36;102718.28;4983191;28;20065;-73
2022/03/20 09:40:22;;;;;;;42.88;20.88;;;;;;;8.27;39.95;102720.13;4983529;28;20835;-73
2022/03/20 09:42:47;;;;;;;44.05;22.35;;;;;;;7.91;39.87;102702.38;4981161;28;20133;-73
2022/03/20 09:45:17;;;;;;;38.95;20.48;;;;;;;7.86;41.79;102681.22;4984524;23;20054;-65
2022/03/20 09:47:42;;;;;;;39.22;20.38;;;;;;;8.27;40.33;102695.34;4979294;28;20061;-67
2022/03/20 09:50:10;;;;;;;40.95;20.95;;;;;;;7.99;40.43;102682.72;4980534;28;20046;-66
2022/03/20 09:52:37;;;;;;;37.45;22.00;;;;;;;7.82;41.13;102692.81;4996033;28;20725;-66
2022/03/20 09:55:05;;;;;;;43.30;22.70;;;;;;;7.92;41.45;102702.34;4981996;28;20042;-66
2022/03/20 09:57:30;;;;;;;48.15;22.08;;;;;;;8.04;39.84;102709.19;4981767;28;20084;-66
2022/03/20 10:00:03;;;;;;;41.40;21.88;;;;;;;8.40;39.78;102699.50;4981770;28;20136;-65
2022/03/20 10:02:30;;;;;;;40.40;21.50;;;;;;;8.92;38.22;102703.47;4981401;28;20494;-66
2022/03/20 10:05:01;;;;;;;49.13;23.73;;;;;;;8.97;38.14;102692.72;4981051;28;20042;-67
2022/03/20 10:07:33;;;;;;;39.72;22.48;;;;;;;9.49;39.52;102680.63;4981166;28;20049;-66
2022/03/20 10:10:26;;;;;;;40.75;23.33;;;;;;;9.91;38.16;102704.22;4980778;28;20046;-66
2022/03/20 10:12:56;;;;;;;44.30;22.98;;;;;;;9.41;37.99;102717.22;4981038;28;20065;-66
2022/03/20 10:15:41;;;;;;;43.63;22.45;;;;;;;9.18;38.25;102713.41;4980408;28;20058;-68
2022/03/20 10:18:17;;;;;;;45.58;23.02;;;;;;;9.23;38.07;102702.63;4978253;28;20046;-66
2022/03/20 10:20:56;;;;;;;43.30;24.20;;;;;;;8.96;38.94;102704.28;4981352;28;20717;-68
2022/03/20 10:23:41;;;;;;;45.90;23.95;;;;;;;8.71;38.95;102696.94;4981087;28;20813;-66
2022/03/20 10:26:16;;;;;;;41.00;23.00;;;;;;;8.82;39.22;102700.19;4981177;28;20054;-66
2022/03/20 10:29:01;;;;;;;44.53;23.42;;;;;;;9.20;39.12;102694.75;4981199;28;20112;-67
2022/03/20 10:31:26;;;;;;;45.60;23.77;;;;;;;8.80;38.61;102691.38;4980415;28;20050;-66
2022/03/20 10:34:03;;;;;;;47.22;23.73;;;;;;;8.91;39.28;102704.38;4980747;28;20060;-66
2022/03/20 10:36:29;;;;;;;47.80;23.80;;;;;;;8.81;39.34;102701.09;4984852;28;20042;-65
2022/03/20 10:38:55;;;;;;;48.35;24.13;;;;;;;8.69;39.65;102708.53;4984885;28;20402;-65
2022/03/20 10:41:28;;;;;;;44.10;23.00;;;;;;;8.73;39.59;102708.38;4985093;28;20050;-70
2022/03/20 10:43:55;;;;;;;44.20;23.67;;;;;;;8.56;39.45;102708.81;4985079;28;20140;-66
2022/03/20 10:46:22;;;;;;;42.55;23.42;;;;;;;8.46;39.77;102714.41;5003900;28;20077;-66
2022/03/20 10:48:52;;;;;;;42.03;22.42;;;;;;;8.62;39.89;102705.13;4986371;28;20058;-66
2022/03/20 10:51:38;;;;;;;42.75;23.67;;;;;;;8.39;40.01;102716.34;5004259;28;20050;-66
2022/03/20 10:54:10;;;;;;;50.80;23.98;;;;;;;8.63;40.03;102700.69;5004501;28;20049;-65
2022/03/20 10:57:05;;;;;;;44.20;23.30;;;;;;;8.74;39.85;102704.84;5004110;28;20091;-66
2022/03/20 10:59:30;;;;;;;45.35;23.25;;;;;;;8.67;39.76;102699.69;5002127;28;20076;-65
2022/03/20 11:01:57;;;;;;;43.83;24.15;;;;;;;8.59;40.15;102701.69;5004296;28;20457;-66
2022/03/20 11:04:23;;;;;;;39.33;22.55;;;;;;;8.73;41.50;102704.84;5004339;28;20117;-66
2022/03/20 11:06:50;;;;;;;44.90;24.83;;;;;;;8.66;41.03;102698.84;5003603;28;20042;-66
2022/03/20 11:09:16;;;;;;;44.97;24.08;;;;;;;8.74;40.27;102691.53;5004127;28;20196;-65
2022/03/20 11:11:45;;;;;;;48.30;25.55;;;;;;;9.05;41.49;102688.94;5003387;28;20045;-68
2022/03/20 11:14:15;;;;;;;47.40;25.02;;;;;;;8.79;40.75;102689.63;4989809;28;20680;-66
2022/03/20 11:16:42;;;;;;;50.50;26.40;;;;;;;8.79;40.88;102691.44;5003650;28;20042;-66
2022/03/20 11:19:11;;;;;;;47.58;24.33;;;;;;;8.69;40.80;102687.25;4982163;28;20747;-66
2022/03/20 11:21:40;;;;;;;47.13;25.85;;;;;;;8.72;40.88;102693.34;4984771;28;20510;-66
2022/03/20 11:24:06;;;;;;;45.85;25.67;;;;;;;8.57;41.39;102681.31;4985060;28;20042;-66
2022/03/20 11:26:33;;;;;;;48.38;24.38;;;;;;;8.61;41.75;102681.25;5003728;28;20044;-66
2022/03/20 11:29:01;;;;;;;45.72;24.92;;;;;;;8.67;42.02;102676.63;5002956;28;20771;-65
2022/03/20 11:31:32;;;;;;;55.08;25.85;;;;;;;8.59;41.49;102681.31;4978490;28;20540;-66
2022/03/20 11:33:57;;;;;;;46.83;24.98;;;;;;;8.50;41.74;102681.53;4988453;28;20573;-67
2022/03/20 11:36:23;;;;;;;54.38;26.23;;;;;;;8.52;41.71;102677.91;5000407;28;20049;-66
2022/03/20 11:39:08;;;;;;;52.58;26.25;;;;;;;8.57;42.38;102691.09;4986485;28;20045;-66
2022/03/20 11:41:34;;;;;;;48.30;24.65;;;;;;;8.58;42.30;102684.84;4981937;28;20474;-66
2022/03/20 11:44:15;;;;;;;47.90;24.35;;;;;;;8.57;41.69;102685.75;4985074;28;20038;-66
2022/03/20 11:46:43;;;;;;;49.35;25.92;;;;;;;8.64;41.38;102684.72;5002114;28;20029;-67
2022/03/20 11:49:12;;;;;;;46.78;24.02;;;;;;;8.76;40.77;102683.50;5002946;28;20049;-68